createdAt,value
2022-10-16T00:02:01.643Z,99924.03
2022-10-16T00:04:50.093Z,99937.25
2022-10-16T00:07:38.501Z,99930.78
2022-10-16T00:10:26.903Z,99935.34
2022-10-16T00:13:15.302Z,99925.28
2022-10-16T00:16:05.894Z,99939.13
2022-10-16T00:18:54.335Z,99941.03
2022-10-16T00:21:43.155Z,99863.44
2022-10-16T00:24:31.587Z,99939.63
2022-10-16T00:27:20.072Z,99932.56
2022-10-16T00:30:10.195Z,99900.09
2022-10-16T00:33:00.090Z,99939.13
2022-10-16T00:35:48.766Z,99903.03
2022-10-16T00:38:38.665Z,99924.13
2022-10-16T00:41:27.435Z,99933.41
2022-10-16T00:44:44.739Z,99933.72
2022-10-16T00:47:36.143Z,99939.88
2022-10-16T00:50:29.377Z,99925.84
2022-10-16T00:53:18.715Z,99925.84
2022-10-16T00:56:07.858Z,99922.09
2022-10-16T00:58:56.366Z,99931.25
2022-10-16T01:01:44.855Z,99938.81
2022-10-16T01:04:39.147Z,99947.44
2022-10-16T01:07:37.061Z,99946.84
2022-10-16T01:10:30.017Z,99950.13
2022-10-16T01:13:22.575Z,99955.56
2022-10-16T01:16:15.927Z,99950.94
2022-10-16T01:19:10.559Z,99960.22
2022-10-16T01:21:59.907Z,99967.50
2022-10-16T01:24:51.294Z,99951.53
2022-10-16T01:27:42.455Z,99966.44
2022-10-16T01:30:33.059Z,99954.56
2022-10-16T01:33:23.601Z,99964.22
2022-10-16T01:36:15.587Z,99934.13
2022-10-16T01:39:04.593Z,99947.91
2022-10-16T01:41:57.172Z,99947.09
2022-10-16T01:44:47.752Z,99895.84
2022-10-16T01:47:37.631Z,99931.19
2022-10-16T01:50:26.557Z,99931.59
2022-10-16T01:53:15.905Z,99940.84
2022-10-16T01:56:06.196Z,99943.56
2022-10-16T01:58:56.888Z,99927.31
2022-10-16T02:01:49.007Z,99942.00
2022-10-16T02:04:40.380Z,99937.09
2022-10-16T02:07:28.926Z,99939.81
2022-10-16T02:10:17.859Z,99936.25
2022-10-16T02:13:09.786Z,99935.78
2022-10-16T02:15:58.206Z,99941.34
2022-10-16T02:18:47.994Z,99945.34
2022-10-16T02:21:42.208Z,99953.72
2022-10-16T02:24:35.269Z,99955.28
2022-10-16T02:27:28.123Z,99948.00
2022-10-16T02:30:20.098Z,99953.88
2022-10-16T02:33:11.450Z,99954.38
2022-10-16T02:36:01.383Z,99964.59
2022-10-16T02:38:49.829Z,99958.28
2022-10-16T02:41:38.698Z,99961.06
2022-10-16T02:44:27.277Z,99962.63
2022-10-16T02:47:15.763Z,99971.81
2022-10-16T02:50:04.749Z,99959.34
2022-10-16T02:52:54.545Z,99960.66
2022-10-16T02:55:42.974Z,99959.94
2022-10-16T02:58:31.448Z,99946.81
2022-10-16T03:01:19.964Z,99973.34
2022-10-16T03:04:08.464Z,99970.31
2022-10-16T03:06:56.959Z,99962.81
2022-10-16T03:09:46.693Z,99975.63
2022-10-16T03:12:35.189Z,99971.41
2022-10-16T03:15:23.643Z,99980.22
2022-10-16T03:18:12.056Z,99976.81
2022-10-16T03:21:00.483Z,99980.72
2022-10-16T03:23:48.911Z,99974.72
2022-10-16T03:26:38.720Z,99979.53
2022-10-16T03:29:28.549Z,99983.31
2022-10-16T03:32:16.957Z,99968.53
2022-10-16T03:35:05.985Z,99971.91
2022-10-16T03:37:54.408Z,99966.88
2022-10-16T03:40:42.805Z,99976.16
2022-10-16T03:43:32.568Z,99981.00
2022-10-16T03:46:21.007Z,99990.25
2022-10-16T03:49:10.016Z,99954.97
2022-10-16T03:51:58.541Z,99986.66
2022-10-16T03:54:46.940Z,99993.56
2022-10-16T03:57:35.353Z,99982.53
2022-10-16T04:00:25.116Z,99983.47
2022-10-16T04:03:13.830Z,99977.03
2022-10-16T04:06:02.287Z,99980.44
2022-10-16T04:08:50.922Z,99980.69
2022-10-16T04:11:39.915Z,99975.28
2022-10-16T04:14:28.385Z,99976.59
2022-10-16T04:17:18.161Z,99977.63
2022-10-16T04:20:07.818Z,99970.94
2022-10-16T04:22:56.260Z,99989.16
2022-10-16T04:25:44.671Z,99999.41
2022-10-16T04:28:33.114Z,100002.66
2022-10-16T04:31:21.620Z,99990.69
2022-10-16T04:34:11.362Z,100014.44
2022-10-16T04:36:59.771Z,100013.28
2022-10-16T04:39:48.160Z,100014.19
2022-10-16T04:42:36.581Z,100025.47
2022-10-16T04:45:25.070Z,100004.69
2022-10-16T04:48:13.538Z,100028.41
2022-10-16T04:51:03.363Z,100029.25
2022-10-16T04:53:51.765Z,100021.16
2022-10-16T04:56:47.473Z,100029.50
2022-10-16T04:59:36.006Z,100025.25
2022-10-16T05:02:24.626Z,100019.03
2022-10-16T05:05:13.299Z,100013.38
2022-10-16T05:08:03.236Z,100029.50
2022-10-16T05:10:51.699Z,100027.25
2022-10-16T05:13:40.114Z,100031.63
2022-10-16T05:16:28.780Z,100032.66
2022-10-16T05:19:32.404Z,100029.16
2022-10-16T05:22:20.857Z,100028.53
2022-10-16T05:25:10.672Z,100037.94
2022-10-16T05:27:59.112Z,100020.44
2022-10-16T05:30:47.551Z,100038.31
2022-10-16T05:33:36.185Z,100050.38
2022-10-16T05:36:24.642Z,100047.69
2022-10-16T05:39:13.148Z,100043.72
2022-10-16T05:42:02.896Z,100036.75
2022-10-16T05:44:51.312Z,100039.13
2022-10-16T05:47:39.944Z,100041.13
2022-10-16T05:50:28.409Z,100050.84
2022-10-16T05:53:16.788Z,100058.25
2022-10-16T05:56:06.297Z,100029.97
2022-10-16T05:58:56.291Z,100045.09
2022-10-16T06:01:44.706Z,100052.16
2022-10-16T06:04:33.109Z,100059.66
2022-10-16T06:07:21.571Z,100055.34
2022-10-16T06:10:10.631Z,100054.50
2022-10-16T06:12:59.056Z,100049.94
2022-10-16T06:15:48.812Z,100061.19
2022-10-16T06:18:37.374Z,100082.81
2022-10-16T06:21:27.232Z,100079.03
2022-10-16T06:24:15.669Z,100076.94
2022-10-16T06:27:05.256Z,100076.47
2022-10-16T06:29:53.779Z,100068.84
2022-10-16T06:32:43.590Z,100079.19
2022-10-16T06:35:32.891Z,100085.16
2022-10-16T06:38:21.282Z,100091.16
2022-10-16T06:41:12.085Z,100100.56
2022-10-16T06:44:00.483Z,100098.44
2022-10-16T06:46:48.905Z,100100.09
2022-10-16T06:49:38.805Z,100109.59
2022-10-16T06:52:29.746Z,100108.19
2022-10-16T06:55:18.325Z,100102.56
2022-10-16T06:58:06.724Z,100088.69
2022-10-16T07:00:57.777Z,100100.34
2022-10-16T07:03:47.354Z,100094.91
2022-10-16T07:06:37.142Z,100109.03
2022-10-16T07:09:25.852Z,100113.03
2022-10-16T07:12:14.328Z,100110.69
2022-10-16T07:15:02.855Z,100098.47
2022-10-16T07:17:51.305Z,100106.91
2022-10-16T07:20:39.718Z,100110.78
2022-10-16T07:23:29.534Z,100113.97
2022-10-16T07:26:18.244Z,100123.72
2022-10-16T07:29:06.899Z,100116.28
2022-10-16T07:31:55.355Z,100136.25
2022-10-16T07:34:44.292Z,100133.06
2022-10-16T07:37:32.703Z,100142.69
2022-10-16T07:40:23.147Z,100138.19
2022-10-16T07:43:11.703Z,100142.66
2022-10-16T07:46:02.599Z,100138.97
2022-10-16T07:48:54.307Z,100150.16
2022-10-16T07:51:42.799Z,100143.69
2022-10-16T07:54:31.312Z,100159.19
2022-10-16T07:57:21.114Z,100171.66
2022-10-16T08:00:14.428Z,100152.13
2022-10-16T08:03:02.960Z,100169.47
2022-10-16T08:05:51.547Z,100182.13
2022-10-16T08:08:40.069Z,100176.66
2022-10-16T08:11:28.482Z,100169.44
2022-10-16T08:14:18.283Z,100139.59
2022-10-16T08:17:06.727Z,100170.34
2022-10-16T08:19:55.170Z,100166.03
2022-10-16T08:22:43.572Z,100163.66
2022-10-16T08:25:32.027Z,100169.16
2022-10-16T08:28:20.534Z,100168.53
2022-10-16T08:31:11.866Z,100131.16
2022-10-16T08:34:00.319Z,100165.16
2022-10-16T08:36:48.769Z,100182.19
2022-10-16T08:39:37.199Z,100174.31
2022-10-16T08:42:40.003Z,100187.69
2022-10-16T08:45:36.477Z,100191.22
2022-10-16T08:48:31.350Z,100163.75
2022-10-16T08:51:23.528Z,100208.63
2022-10-16T08:54:23.276Z,100195.66
2022-10-16T08:57:16.320Z,100217.03
2022-10-16T09:00:15.518Z,100218.38
2022-10-16T09:03:09.320Z,100227.78
2022-10-16T09:06:08.820Z,100231.59
2022-10-16T09:09:10.708Z,100235.06
2022-10-16T09:12:02.964Z,100225.69
2022-10-16T09:15:01.547Z,100247.44
2022-10-16T09:17:56.563Z,100245.94
2022-10-16T09:20:52.239Z,100263.91
2022-10-16T09:23:42.379Z,100264.41
2022-10-16T09:26:30.896Z,100263.47
2022-10-16T09:29:21.593Z,100261.97
2022-10-16T09:32:13.941Z,100273.09
2022-10-16T09:35:02.759Z,100277.91
2022-10-16T09:37:52.891Z,100264.13
2022-10-16T09:40:44.742Z,100221.16
2022-10-16T09:43:37.350Z,100284.00
2022-10-16T09:46:29.212Z,100283.44
2022-10-16T09:49:23.872Z,100244.59
2022-10-16T09:52:14.942Z,100286.84
2022-10-16T09:55:11.408Z,100296.69
2022-10-16T09:58:01.273Z,100301.50
2022-10-16T10:00:54.380Z,100293.41
2022-10-16T10:03:44.479Z,100301.91
2022-10-16T10:06:34.752Z,100298.06
2022-10-16T10:09:25.057Z,100313.63
2022-10-16T10:12:22.985Z,100315.53
2022-10-16T10:15:20.836Z,100290.34
2022-10-16T10:18:18.848Z,100323.09
2022-10-16T10:21:07.831Z,100320.09
2022-10-16T10:23:59.207Z,100318.41
2022-10-16T10:26:53.324Z,100314.31
2022-10-16T10:29:49.273Z,100313.88
2022-10-16T10:32:45.152Z,100315.91
2022-10-16T10:35:37.624Z,100281.88
2022-10-16T10:38:33.357Z,100312.66
2022-10-16T10:41:47.214Z,100314.72
2022-10-16T10:45:06.190Z,100323.59
2022-10-16T10:48:06.134Z,100320.97
2022-10-16T10:50:58.020Z,100314.16
2022-10-16T10:53:51.392Z,100304.38
2022-10-16T10:56:46.047Z,100302.44
2022-10-16T10:59:59.021Z,100315.81
2022-10-16T11:02:50.976Z,100316.88
2022-10-16T11:05:43.583Z,100310.56
2022-10-16T11:08:36.303Z,100316.25
2022-10-16T11:11:27.941Z,100303.47
2022-10-16T11:14:19.505Z,100311.06
2022-10-16T11:17:12.461Z,100311.09
2022-10-16T11:20:04.872Z,100310.06
2022-10-16T11:22:57.423Z,100312.28
2022-10-16T11:25:47.387Z,100313.09
2022-10-16T11:28:39.638Z,100297.56
2022-10-16T11:31:33.008Z,100301.69
2022-10-16T11:34:24.891Z,100305.75
2022-10-16T11:37:16.362Z,100300.84
2022-10-16T11:40:19.481Z,100291.28
2022-10-16T11:43:13.296Z,100293.75
2022-10-16T11:46:09.232Z,100277.34
2022-10-16T11:49:04.874Z,100286.06
2022-10-16T11:52:00.971Z,100285.53
2022-10-16T11:54:52.493Z,100272.72
2022-10-16T11:57:46.309Z,100291.28
2022-10-16T12:00:40.312Z,100287.72
2022-10-16T12:03:31.787Z,100290.44
2022-10-16T12:06:30.412Z,100281.72
2022-10-16T12:09:23.575Z,100278.16
2022-10-16T12:12:28.260Z,100289.59
2022-10-16T12:15:47.051Z,100262.06
2022-10-16T12:18:34.830Z,100285.25
2022-10-16T12:24:29.956Z,100283.88
2022-10-16T12:27:26.929Z,100282.25
2022-10-16T12:30:24.496Z,100279.00
2022-10-16T12:33:23.329Z,100275.47
2022-10-16T12:36:15.987Z,100270.84
2022-10-16T12:39:05.032Z,100268.66
2022-10-16T12:42:03.113Z,100256.06
2022-10-16T12:44:52.105Z,100270.81
2022-10-16T12:47:51.146Z,100276.28
2022-10-16T12:50:41.689Z,100275.19
2022-10-16T12:53:30.604Z,100267.25
2022-10-16T12:56:24.313Z,100283.91
2022-10-16T12:59:21.437Z,100285.00
2022-10-16T13:02:44.917Z,100276.56
2022-10-16T13:05:41.296Z,100286.63
2022-10-16T13:08:48.174Z,100279.53
2022-10-16T13:11:47.924Z,100291.28
2022-10-16T13:14:56.146Z,100285.56
2022-10-16T13:17:52.094Z,100289.38
2022-10-16T13:20:57.544Z,100292.13
2022-10-16T13:23:52.197Z,100287.78
2022-10-16T13:26:45.527Z,100286.94
2022-10-16T13:29:34.685Z,100262.34
2022-10-16T13:32:23.674Z,100290.47
2022-10-16T13:35:24.804Z,100280.13
2022-10-16T13:38:17.911Z,100276.56
2022-10-16T13:41:08.351Z,100276.00
2022-10-16T13:43:58.689Z,100289.13
2022-10-16T13:46:47.182Z,100276.84
2022-10-16T13:49:35.751Z,100271.66
2022-10-16T13:52:25.764Z,100276.28
2022-10-16T13:55:15.465Z,100120.16
2022-10-16T13:58:07.659Z,100277.94
2022-10-16T14:00:58.518Z,100261.25
2022-10-16T14:03:47.745Z,100278.22
2022-10-16T14:06:37.366Z,100265.34
2022-10-16T14:09:28.627Z,100272.19
2022-10-16T14:12:17.453Z,100270.81
2022-10-16T14:15:07.280Z,100273.50
2022-10-16T14:17:55.961Z,100280.06
2022-10-16T14:20:44.602Z,100277.03
2022-10-16T14:23:34.492Z,100256.56
2022-10-16T14:26:25.515Z,100278.41
2022-10-16T14:29:17.169Z,100275.69
2022-10-16T14:32:07.085Z,100277.59
2022-10-16T14:34:56.302Z,100274.88
2022-10-16T14:37:45.960Z,100270.00
2022-10-16T14:40:35.859Z,100255.22
2022-10-16T14:43:31.145Z,100273.00
2022-10-16T14:46:22.911Z,100263.97
2022-10-16T14:49:17.560Z,100269.16
2022-10-16T14:52:10.992Z,100267.00
2022-10-16T14:54:59.406Z,100269.16
2022-10-16T14:57:48.119Z,100266.16
2022-10-16T15:00:37.923Z,100273.00
2022-10-16T15:03:26.460Z,100262.34
2022-10-16T15:06:15.918Z,100270.78
2022-10-16T15:09:04.653Z,100272.97
2022-10-16T15:11:53.165Z,100258.50
2022-10-16T15:14:41.740Z,100266.16
2022-10-16T15:17:31.516Z,100270.25
2022-10-16T15:20:19.999Z,100269.44
2022-10-16T15:23:15.140Z,100275.72
2022-10-16T15:26:03.689Z,100267.00
2022-10-16T15:28:52.277Z,100268.34
2022-10-16T15:31:43.422Z,100269.13
2022-10-16T15:34:33.208Z,100276.50
2022-10-16T15:37:21.771Z,100267.81
2022-10-16T15:40:11.860Z,100267.25
2022-10-16T15:43:00.325Z,100260.13
2022-10-16T15:46:00.534Z,100272.41
2022-10-16T15:48:49.774Z,100266.94
2022-10-16T15:51:42.364Z,100266.38
2022-10-16T15:54:30.839Z,100277.84
2022-10-16T15:57:19.515Z,100268.03
2022-10-16T16:00:10.700Z,100268.84
2022-10-16T16:02:59.501Z,100280.25
2022-10-16T16:05:48.069Z,100291.13
2022-10-16T16:08:38.283Z,100281.53
2022-10-16T16:11:26.868Z,100281.78
2022-10-16T16:14:15.935Z,100278.28
2022-10-16T16:17:04.395Z,100281.19
2022-10-16T16:19:52.878Z,100286.06
2022-10-16T16:22:41.693Z,100275.41
2022-10-16T16:25:31.617Z,100290.59
2022-10-16T16:28:20.114Z,100290.56
2022-10-16T16:31:09.031Z,100291.34
2022-10-16T16:33:58.474Z,100299.94
2022-10-16T16:36:46.909Z,100288.34
2022-10-16T16:39:35.509Z,100290.69
2022-10-16T16:42:25.362Z,100283.22
2022-10-16T16:45:13.946Z,100282.56
2022-10-16T16:48:02.505Z,100284.94
2022-10-16T16:50:50.937Z,100280.59
2022-10-16T16:53:39.435Z,100279.34
2022-10-16T16:56:28.367Z,100294.25
2022-10-16T16:59:20.623Z,100293.84
2022-10-16T17:02:11.097Z,100296.78
2022-10-16T17:04:59.648Z,100286.09
2022-10-16T17:07:48.641Z,100291.41
2022-10-16T17:10:44.660Z,100297.16
2022-10-16T17:13:37.880Z,100268.91
2022-10-16T17:16:29.808Z,100280.19
2022-10-16T17:19:19.737Z,100303.19
2022-10-16T17:22:08.217Z,100311.00
2022-10-16T17:24:56.972Z,100312.44
2022-10-16T17:27:45.586Z,100297.03
2022-10-16T17:30:35.629Z,100297.22
2022-10-16T17:33:25.484Z,100323.78
2022-10-16T17:36:15.051Z,100318.44
2022-10-16T17:39:06.320Z,100327.81
2022-10-16T17:41:55.685Z,100307.94
2022-10-16T17:44:44.243Z,100322.25
2022-10-16T17:47:32.736Z,100332.75
2022-10-16T17:50:22.810Z,100335.72
2022-10-16T17:53:11.415Z,100331.63
2022-10-16T17:56:04.614Z,100341.63
2022-10-16T17:58:55.307Z,100331.38
2022-10-16T18:01:46.193Z,100342.13
2022-10-16T18:04:34.948Z,100341.69
2022-10-16T18:07:25.169Z,100330.69
2022-10-16T18:10:15.522Z,100338.47
2022-10-16T18:13:07.163Z,100342.25
2022-10-16T18:16:01.583Z,100343.97
2022-10-16T18:18:50.322Z,100342.91
2022-10-16T18:21:39.157Z,100366.16
2022-10-16T18:24:29.310Z,100346.28
2022-10-16T18:27:17.895Z,100346.50
2022-10-16T18:30:07.668Z,100334.56
2022-10-16T18:32:56.161Z,100355.59
2022-10-16T18:35:44.753Z,100360.09
2022-10-16T18:38:33.669Z,100357.41
2022-10-16T18:41:23.815Z,100358.19
2022-10-16T18:44:13.281Z,100360.19
2022-10-16T18:47:02.468Z,100361.56
2022-10-16T18:49:51.498Z,100363.00
2022-10-16T18:52:40.122Z,100237.09
2022-10-16T18:55:30.946Z,100358.66
2022-10-16T18:58:21.178Z,100227.94
2022-10-16T19:01:11.208Z,100339.50
2022-10-16T19:04:06.806Z,100368.72
2022-10-16T19:06:55.933Z,100370.34
2022-10-16T19:09:44.511Z,100364.66
2022-10-16T19:12:33.039Z,100249.66
2022-10-16T19:15:23.255Z,100371.25
2022-10-16T19:18:11.772Z,100342.78
2022-10-16T19:21:03.227Z,100374.06
2022-10-16T19:23:53.011Z,100379.72
2022-10-16T19:26:42.195Z,100389.50
2022-10-16T19:29:31.018Z,100391.16
2022-10-16T19:32:20.974Z,100397.41
2022-10-16T19:35:10.292Z,100401.25
2022-10-16T19:37:58.734Z,100396.09
2022-10-16T19:40:47.276Z,100408.81
2022-10-16T19:43:36.046Z,100409.53
2022-10-16T19:46:26.287Z,100413.75
2022-10-16T19:49:21.116Z,100425.56
2022-10-16T19:52:09.577Z,100419.03
2022-10-16T19:54:58.319Z,100423.13
2022-10-16T19:57:47.003Z,100426.69
2022-10-16T20:00:35.543Z,100419.41
2022-10-16T20:03:24.014Z,100424.72
2022-10-16T20:06:14.570Z,100428.88
2022-10-16T20:09:03.108Z,100433.19
2022-10-16T20:11:51.556Z,100432.84
2022-10-16T20:14:40.004Z,100444.66
2022-10-16T20:17:29.024Z,100440.63
2022-10-16T20:20:18.152Z,100445.94
2022-10-16T20:23:08.092Z,100450.06
2022-10-16T20:25:58.199Z,100449.56
2022-10-16T20:28:49.232Z,100447.38
2022-10-16T20:31:38.310Z,100451.25
2022-10-16T20:34:26.804Z,100454.28
2022-10-16T20:37:15.301Z,100465.25
2022-10-16T20:40:05.993Z,100460.06
2022-10-16T20:42:54.434Z,100465.13
2022-10-16T20:45:42.947Z,100476.19
2022-10-16T20:48:31.494Z,100479.34
2022-10-16T20:51:22.061Z,100478.16
2022-10-16T20:54:12.501Z,100481.78
2022-10-16T20:57:02.284Z,100483.06
2022-10-16T20:59:54.912Z,100477.16
2022-10-16T21:02:43.353Z,100479.38
2022-10-16T21:05:34.441Z,100494.56
2022-10-16T21:08:22.919Z,100500.44
2022-10-16T21:11:12.883Z,100501.72
2022-10-16T21:14:04.305Z,100485.44
2022-10-16T21:16:52.729Z,100497.91
2022-10-16T21:19:41.178Z,100497.78
2022-10-16T21:22:30.571Z,100495.53
2022-10-16T21:25:19.467Z,100513.06
2022-10-16T21:28:07.902Z,100502.16
2022-10-16T21:30:57.760Z,100503.47
2022-10-16T21:33:46.457Z,100504.81
2022-10-16T21:36:36.433Z,100505.88
2022-10-16T21:39:24.860Z,100511.13
2022-10-16T21:42:13.310Z,100509.94
2022-10-16T21:45:01.743Z,100482.16
2022-10-16T21:47:51.570Z,100514.38
2022-10-16T21:50:40.006Z,100524.81
2022-10-16T21:53:28.505Z,100522.78
2022-10-16T21:56:18.451Z,100521.59
2022-10-16T21:59:07.413Z,100521.22
2022-10-16T22:01:56.579Z,100511.28
2022-10-16T22:04:46.401Z,100510.50
2022-10-16T22:07:34.861Z,100506.63
2022-10-16T22:10:23.292Z,100511.88
2022-10-16T22:13:11.705Z,100505.88
2022-10-16T22:16:00.461Z,100505.69
2022-10-16T22:18:49.273Z,100514.47
2022-10-16T22:21:40.742Z,100529.44
2022-10-16T22:24:29.188Z,100527.09
2022-10-16T22:27:17.669Z,100514.81
2022-10-16T22:30:07.089Z,100523.13
2022-10-16T22:32:55.543Z,100520.94
2022-10-16T22:35:44.014Z,100526.91
2022-10-16T22:38:34.938Z,100528.22
2022-10-16T22:41:24.576Z,100527.69
2022-10-16T22:44:13.594Z,100535.59
2022-10-16T22:47:02.026Z,100530.22
2022-10-16T22:49:50.468Z,100535.69
2022-10-16T22:52:39.235Z,100537.72
2022-10-16T22:55:29.088Z,100533.63
2022-10-16T22:58:17.531Z,100552.09
2022-10-16T23:01:12.381Z,100549.44
2022-10-16T23:04:02.096Z,100547.34
2022-10-16T23:06:50.604Z,100554.25
2022-10-16T23:09:39.370Z,100451.69
2022-10-16T23:12:29.860Z,100550.97
2022-10-16T23:15:18.702Z,100561.81
2022-10-16T23:18:07.148Z,100570.91
2022-10-16T23:20:55.595Z,100566.91
2022-10-16T23:23:44.693Z,100574.22
2022-10-16T23:26:35.170Z,100570.53
2022-10-16T23:29:24.948Z,100569.69
2022-10-16T23:32:13.649Z,100576.28
2022-10-16T23:35:02.134Z,100570.53
2022-10-16T23:37:51.444Z,100549.41
2022-10-16T23:40:39.855Z,100575.91
2022-10-16T23:43:28.706Z,100569.69
2022-10-16T23:46:18.562Z,100574.69
2022-10-16T23:49:07.079Z,100571.75
2022-10-16T23:51:55.728Z,100582.78
2022-10-16T23:54:44.154Z,100595.03
2022-10-16T23:57:32.563Z,100602.53
